Waldron, Indiana
Current Conditions -  °F | °C
As of 9:53 AM on Sunday 21 Dec 2014 (Local Time) from KGEZ Reporting Station
Haze Haze  
Wind Chill: 24°   Ceiling: Unl
Heat Index: 30°   Visibility: 5mi
Dew Point: 25°   Wind: 6mph
Humidity: 82%   Direction: 140°SE
Pressure: 30.29"   Gusts: NA
Location:  39.45°N, 85.67°W
Report Text: KGEZ 211453Z AUTO 14005KT 5SM HZ CLR M01/M04 A3029 RMK AO2 SLP266 I3000 T10111039 51003
Loading
Personal Weather Stations






























Interactive Weather Map New forecast layout! Learn more

10-Day Weather Forecast

Advertisements
Track Severe Weather on mobile